createdAt,value
2022-08-31T00:00:41.461Z,51.72
2022-08-31T00:03:29.570Z,52.21
2022-08-31T00:05:59.257Z,51.97
2022-08-31T00:08:30.643Z,51.74
2022-08-31T00:11:03.299Z,52.05
2022-08-31T00:13:33.465Z,52.62
2022-08-31T00:16:13.023Z,52.47
2022-08-31T00:18:42.272Z,52.84
2022-08-31T00:21:10.407Z,53.18
2022-08-31T00:23:40.101Z,53.39
2022-08-31T00:26:11.882Z,53.06
2022-08-31T00:28:41.246Z,53.52
2022-08-31T00:31:12.274Z,54.07
2022-08-31T00:33:42.013Z,54.14
2022-08-31T00:36:16.581Z,54.17
2022-08-31T00:38:48.261Z,54.43
2022-08-31T00:41:19.329Z,54.72
2022-08-31T00:43:52.137Z,55.11
2022-08-31T00:46:23.455Z,55.53
2022-08-31T00:49:01.332Z,55.40
2022-08-31T00:51:30.964Z,55.44
2022-08-31T00:54:01.035Z,54.83
2022-08-31T00:56:31.530Z,54.68
2022-08-31T00:59:01.264Z,55.88
2022-08-31T01:01:31.025Z,55.60
2022-08-31T01:04:00.990Z,56.56
2022-08-31T01:06:29.630Z,56.56
2022-08-31T01:09:00.588Z,56.93
2022-08-31T01:11:30.416Z,56.89
2022-08-31T01:13:58.515Z,57.16
2022-08-31T01:16:34.085Z,57.46
2022-08-31T01:19:04.738Z,57.50
2022-08-31T01:21:39.526Z,57.43
2022-08-31T01:24:12.369Z,57.24
2022-08-31T01:26:40.975Z,57.92
2022-08-31T01:29:10.138Z,58.07
2022-08-31T01:31:45.125Z,57.68
2022-08-31T01:34:14.352Z,57.72
2022-08-31T01:36:43.881Z,58.52
2022-08-31T01:39:15.300Z,57.83
2022-08-31T01:41:45.868Z,58.34
2022-08-31T01:44:16.929Z,58.66
2022-08-31T01:46:46.361Z,58.07
2022-08-31T01:49:16.033Z,58.06
2022-08-31T01:51:46.535Z,58.11
2022-08-31T01:54:16.249Z,58.64
2022-08-31T01:56:47.434Z,58.85
2022-08-31T01:59:22.240Z,59.18
2022-08-31T02:02:06.464Z,59.19
2022-08-31T02:04:38.346Z,59.46
2022-08-31T02:07:06.751Z,59.20
2022-08-31T02:09:41.750Z,59.06
2022-08-31T02:12:12.770Z,59.99
2022-08-31T02:14:42.781Z,59.36
2022-08-31T02:17:11.762Z,59.11
2022-08-31T02:19:40.062Z,59.66
2022-08-31T02:22:08.265Z,60.11
2022-08-31T02:24:36.361Z,60.27
2022-08-31T02:27:06.740Z,60.61
2022-08-31T02:29:38.188Z,60.38
2022-08-31T02:32:07.628Z,60.07
2022-08-31T02:34:37.774Z,60.69
2022-08-31T02:37:05.907Z,60.57
2022-08-31T02:39:39.734Z,60.95
2022-08-31T02:42:10.460Z,59.98
2022-08-31T02:44:38.726Z,60.90
2022-08-31T02:47:06.879Z,60.71
2022-08-31T02:49:41.735Z,61.18
2022-08-31T02:52:09.858Z,60.66
2022-08-31T02:54:40.851Z,61.14
2022-08-31T02:57:12.138Z,61.44
2022-08-31T02:59:40.786Z,61.80
2022-08-31T03:02:10.412Z,61.84
2022-08-31T03:04:40.274Z,61.79
2022-08-31T03:07:08.480Z,61.86
2022-08-31T03:09:39.907Z,61.67
2022-08-31T03:12:17.352Z,60.74
2022-08-31T03:14:45.758Z,61.16
2022-08-31T03:17:15.158Z,61.47
2022-08-31T03:19:43.321Z,61.88
2022-08-31T03:22:15.137Z,61.86
2022-08-31T03:24:44.068Z,62.08
2022-08-31T03:27:14.583Z,62.18
2022-08-31T03:29:42.968Z,62.39
2022-08-31T03:32:20.124Z,62.67
2022-08-31T03:34:54.580Z,62.25
2022-08-31T03:37:24.420Z,63.09
2022-08-31T03:39:55.978Z,63.24
2022-08-31T03:42:27.538Z,63.23
2022-08-31T03:44:57.862Z,62.74
2022-08-31T03:47:31.429Z,63.93
2022-08-31T03:50:04.069Z,63.72
2022-08-31T03:52:45.755Z,63.68
2022-08-31T03:55:21.326Z,63.44
2022-08-31T03:57:51.317Z,63.51
2022-08-31T04:00:20.051Z,63.67
2022-08-31T04:02:57.418Z,63.95
2022-08-31T04:05:34.331Z,64.02
2022-08-31T04:08:18.860Z,63.64
2022-08-31T04:11:13.101Z,63.56
2022-08-31T04:14:02.371Z,63.56
2022-08-31T04:16:37.096Z,63.51
2022-08-31T04:19:20.202Z,64.49
2022-08-31T04:22:14.967Z,64.88
2022-08-31T04:24:56.748Z,64.54
2022-08-31T04:27:26.990Z,64.62
2022-08-31T04:29:56.627Z,64.95
2022-08-31T04:32:24.818Z,64.73
2022-08-31T04:34:56.393Z,64.02
2022-08-31T04:37:24.884Z,64.44
2022-08-31T04:39:55.679Z,64.24
2022-08-31T04:42:29.590Z,64.26
2022-08-31T04:44:59.289Z,64.03
2022-08-31T04:47:27.905Z,63.66
2022-08-31T04:49:56.934Z,64.19
2022-08-31T04:52:28.327Z,64.10
2022-08-31T04:54:57.871Z,63.99
2022-08-31T04:57:27.301Z,64.30
2022-08-31T04:59:55.714Z,63.92
2022-08-31T05:02:46.788Z,64.13
2022-08-31T05:05:20.512Z,64.51
2022-08-31T05:07:48.983Z,64.25
2022-08-31T05:10:19.204Z,63.79
2022-08-31T05:12:47.359Z,63.70
2022-08-31T05:15:16.049Z,64.33
2022-08-31T05:17:46.367Z,63.71
2022-08-31T05:20:15.920Z,62.07
2022-08-31T05:22:44.929Z,62.89
2022-08-31T05:25:13.340Z,63.47
2022-08-31T05:27:42.340Z,63.43
2022-08-31T05:30:13.184Z,62.91
2022-08-31T05:32:45.430Z,62.79
2022-08-31T05:35:16.679Z,63.01
2022-08-31T05:37:46.019Z,62.91
2022-08-31T05:40:15.479Z,62.71
2022-08-31T05:42:43.535Z,62.60
2022-08-31T05:45:13.107Z,63.76
2022-08-31T05:47:43.161Z,63.13
2022-08-31T05:50:11.895Z,62.33
2022-08-31T05:52:45.485Z,61.61
2022-08-31T05:55:13.678Z,62.80
2022-08-31T05:57:43.397Z,63.08
2022-08-31T06:00:12.872Z,62.44
2022-08-31T06:02:41.886Z,61.82
2022-08-31T06:05:13.942Z,61.60
2022-08-31T06:07:47.094Z,61.22
2022-08-31T06:10:17.108Z,61.28
2022-08-31T06:12:48.933Z,61.41
2022-08-31T06:15:21.091Z,61.72
2022-08-31T06:17:49.284Z,61.73
2022-08-31T06:20:18.576Z,61.65
2022-08-31T06:22:50.342Z,61.35
2022-08-31T06:25:32.763Z,62.01
2022-08-31T06:28:01.744Z,60.63
2022-08-31T06:30:32.819Z,59.40
2022-08-31T06:33:02.029Z,60.04
2022-08-31T06:35:41.113Z,60.32
2022-08-31T06:38:29.155Z,59.50
2022-08-31T06:41:36.406Z,59.96
2022-08-31T06:44:26.984Z,60.43
2022-08-31T06:47:10.524Z,60.42
2022-08-31T06:49:42.016Z,60.41
2022-08-31T06:52:10.267Z,61.05
2022-08-31T06:54:41.470Z,60.91
2022-08-31T06:57:28.708Z,60.46
2022-08-31T07:00:15.512Z,61.27
2022-08-31T07:03:23.218Z,61.11
2022-08-31T07:05:53.977Z,61.59
2022-08-31T07:08:22.757Z,60.68
2022-08-31T07:10:53.926Z,61.35
2022-08-31T07:13:22.059Z,61.20
2022-08-31T07:15:52.659Z,60.41
2022-08-31T07:18:20.990Z,60.18
2022-08-31T07:20:49.832Z,59.96
2022-08-31T07:23:18.603Z,59.68
2022-08-31T07:26:05.359Z,58.65
2022-08-31T07:28:33.899Z,58.91
2022-08-31T07:31:03.456Z,60.35
2022-08-31T07:33:39.066Z,60.64
2022-08-31T07:36:15.252Z,60.87
2022-08-31T07:39:11.100Z,60.98
2022-08-31T07:42:02.670Z,61.02
2022-08-31T07:44:34.630Z,59.95
2022-08-31T07:47:04.550Z,60.26
2022-08-31T07:49:33.012Z,60.37
2022-08-31T07:52:11.675Z,59.03
2022-08-31T07:55:07.808Z,58.13
2022-08-31T07:57:54.911Z,57.53
2022-08-31T08:00:25.508Z,57.77
2022-08-31T08:02:54.237Z,58.87
2022-08-31T08:05:28.774Z,59.13
2022-08-31T08:08:23.282Z,58.25
2022-08-31T08:11:10.065Z,57.97
2022-08-31T08:13:43.924Z,57.70
2022-08-31T08:16:36.478Z,58.14
2022-08-31T08:19:20.358Z,57.39
2022-08-31T08:21:52.193Z,57.16
2022-08-31T08:24:31.908Z,55.96
2022-08-31T08:27:23.407Z,53.69
2022-08-31T08:30:01.886Z,54.67
2022-08-31T08:32:41.168Z,54.49
2022-08-31T08:35:11.084Z,54.10
2022-08-31T08:37:57.785Z,53.49
2022-08-31T08:40:32.435Z,54.64
2022-08-31T08:43:02.469Z,54.17
2022-08-31T08:45:34.111Z,53.46
2022-08-31T08:48:09.723Z,53.26
2022-08-31T08:50:38.235Z,53.31
2022-08-31T08:53:08.778Z,53.26
2022-08-31T08:55:41.662Z,53.56
2022-08-31T08:58:12.873Z,53.29
2022-08-31T09:19:23.292Z,50.58
2022-08-31T09:22:34.481Z,51.63
2022-08-31T09:25:52.213Z,51.01
2022-08-31T09:29:25.009Z,51.00
2022-08-31T09:32:36.509Z,50.30
2022-08-31T09:35:48.324Z,51.52
2022-08-31T09:38:59.953Z,50.63
2022-08-31T09:42:20.216Z,49.71
2022-08-31T09:45:41.418Z,49.76
2022-08-31T09:48:10.734Z,49.72
2022-08-31T09:50:45.184Z,48.55
2022-08-31T09:54:04.977Z,48.47
2022-08-31T09:56:36.529Z,48.31
2022-08-31T09:59:11.931Z,48.03
2022-08-31T10:01:45.609Z,48.17
2022-08-31T10:04:19.640Z,47.79
2022-08-31T10:06:56.494Z,47.30
2022-08-31T10:09:33.643Z,46.43
2022-08-31T10:12:06.628Z,45.81
2022-08-31T10:14:40.923Z,45.78
2022-08-31T10:17:15.329Z,45.89
2022-08-31T10:19:53.100Z,46.15
2022-08-31T10:22:28.395Z,45.64
2022-08-31T10:25:15.568Z,44.79
2022-08-31T10:27:48.699Z,44.86
2022-08-31T10:30:36.744Z,44.98
2022-08-31T10:33:13.362Z,44.78
2022-08-31T10:35:52.838Z,44.62
2022-08-31T10:38:27.447Z,44.79
2022-08-31T10:41:13.162Z,44.80
2022-08-31T10:43:46.741Z,43.88
2022-08-31T10:46:17.199Z,43.58
2022-08-31T10:48:52.336Z,43.53
2022-08-31T10:51:27.044Z,43.43
2022-08-31T10:54:08.257Z,43.26
2022-08-31T10:56:44.237Z,43.20
2022-08-31T10:59:21.532Z,42.44
2022-08-31T11:01:57.651Z,42.43
2022-08-31T11:05:03.500Z,42.11
2022-08-31T11:07:40.123Z,41.82
2022-08-31T11:10:29.083Z,41.31
2022-08-31T11:13:02.126Z,41.57
2022-08-31T11:16:06.695Z,40.91
2022-08-31T11:19:09.247Z,40.91
2022-08-31T11:22:28.705Z,40.92
2022-08-31T11:25:18.005Z,40.38
2022-08-31T11:27:52.998Z,40.13
2022-08-31T11:30:26.827Z,39.74
2022-08-31T11:32:57.693Z,40.09
2022-08-31T11:36:04.047Z,39.93
2022-08-31T11:39:15.249Z,39.76
2022-08-31T11:41:46.760Z,39.30
2022-08-31T11:45:00.984Z,38.29
2022-08-31T11:47:43.523Z,37.06
2022-08-31T11:50:54.482Z,37.85
2022-08-31T11:53:29.828Z,37.83
2022-08-31T11:56:00.639Z,37.87
2022-08-31T11:58:33.869Z,37.32
2022-08-31T12:01:07.038Z,37.23
2022-08-31T12:03:44.331Z,37.17
2022-08-31T12:06:50.884Z,37.52
2022-08-31T12:09:40.932Z,38.88
2022-08-31T12:12:14.194Z,39.58
2022-08-31T12:14:50.335Z,39.61
2022-08-31T12:17:23.109Z,39.62
2022-08-31T12:20:02.242Z,39.90
2022-08-31T12:23:36.218Z,40.23
2022-08-31T12:26:13.481Z,39.98
2022-08-31T12:29:23.076Z,39.21
2022-08-31T12:32:14.407Z,39.66
2022-08-31T12:34:47.353Z,39.03
2022-08-31T12:37:23.779Z,39.22
2022-08-31T12:40:11.454Z,38.84
2022-08-31T12:42:46.325Z,39.19
2022-08-31T12:45:19.719Z,39.27
2022-08-31T12:47:55.143Z,39.23
2022-08-31T12:50:29.662Z,40.98
2022-08-31T12:53:39.837Z,41.49
2022-08-31T12:56:15.122Z,41.16
2022-08-31T12:58:56.170Z,40.83
2022-08-31T13:01:27.243Z,39.84
2022-08-31T13:03:57.749Z,39.87
2022-08-31T13:06:28.009Z,40.01
2022-08-31T13:09:01.819Z,39.91
2022-08-31T13:11:40.267Z,40.12
2022-08-31T13:14:13.290Z,40.74
2022-08-31T13:16:44.405Z,41.96
2022-08-31T13:19:22.901Z,43.28
2022-08-31T13:21:53.587Z,43.89
2022-08-31T13:24:32.219Z,43.97
2022-08-31T13:27:08.360Z,43.74
2022-08-31T13:29:41.285Z,44.26
2022-08-31T13:32:09.733Z,44.32
2022-08-31T13:34:42.246Z,43.72
2022-08-31T13:37:15.218Z,43.42
2022-08-31T13:39:46.856Z,43.25
2022-08-31T13:42:25.613Z,42.69
2022-08-31T13:44:56.693Z,43.12
2022-08-31T13:47:29.000Z,43.50
2022-08-31T13:50:03.280Z,44.03
2022-08-31T13:52:34.786Z,44.11
2022-08-31T13:55:08.241Z,43.89
2022-08-31T13:57:38.412Z,43.32
2022-08-31T14:00:34.127Z,43.14
2022-08-31T14:03:33.819Z,43.66
2022-08-31T14:06:23.859Z,43.70
2022-08-31T14:08:55.056Z,43.99
2022-08-31T14:11:29.453Z,43.56
2022-08-31T14:14:06.136Z,44.20
2022-08-31T14:16:37.064Z,44.02
2022-08-31T14:19:06.119Z,43.36
2022-08-31T14:21:36.014Z,43.53
2022-08-31T14:24:05.341Z,43.31
2022-08-31T14:26:41.808Z,43.25
2022-08-31T14:29:12.456Z,43.38
2022-08-31T14:31:45.366Z,43.02
2022-08-31T14:34:23.334Z,43.42
2022-08-31T14:36:55.153Z,43.63
2022-08-31T14:39:27.311Z,44.24
2022-08-31T14:41:59.280Z,43.04
2022-08-31T14:44:32.121Z,43.84
2022-08-31T14:47:00.835Z,44.00
2022-08-31T14:49:36.568Z,44.60
2022-08-31T14:52:07.132Z,44.97
2022-08-31T14:54:37.941Z,45.85
2022-08-31T14:57:11.738Z,45.72
2022-08-31T14:59:44.852Z,44.84
2022-08-31T15:02:16.546Z,44.44
2022-08-31T15:04:46.040Z,44.82
2022-08-31T15:07:17.003Z,44.12
2022-08-31T15:09:46.956Z,44.17
2022-08-31T15:12:16.875Z,43.96
2022-08-31T15:14:47.432Z,44.04
2022-08-31T15:17:19.778Z,44.60
2022-08-31T15:19:53.234Z,44.52
2022-08-31T15:22:21.927Z,45.25
2022-08-31T15:24:50.300Z,45.35
2022-08-31T15:27:22.463Z,45.81
2022-08-31T15:30:04.580Z,48.37
2022-08-31T15:32:32.843Z,49.33
2022-08-31T15:35:02.295Z,50.45
2022-08-31T15:37:32.709Z,50.21
2022-08-31T15:40:03.759Z,51.30
2022-08-31T15:42:39.892Z,51.40
2022-08-31T15:45:10.791Z,52.07
2022-08-31T15:47:59.891Z,51.13
2022-08-31T15:50:32.426Z,52.35
2022-08-31T15:53:08.822Z,50.62
2022-08-31T15:55:39.000Z,51.92
2022-08-31T15:58:13.824Z,52.01
2022-08-31T16:00:42.984Z,50.84
2022-08-31T16:03:12.695Z,50.71
2022-08-31T16:05:44.498Z,51.10
2022-08-31T16:08:14.393Z,52.77
2022-08-31T16:10:45.400Z,53.17
2022-08-31T16:13:16.963Z,53.53
2022-08-31T16:15:51.151Z,53.22
2022-08-31T16:18:21.981Z,53.51
2022-08-31T16:20:52.224Z,53.19
2022-08-31T16:23:21.500Z,53.73
2022-08-31T16:25:51.855Z,54.28
2022-08-31T16:28:22.363Z,54.25
2022-08-31T16:30:52.176Z,53.84
2022-08-31T16:33:20.742Z,53.50
2022-08-31T16:35:50.774Z,53.81
2022-08-31T16:38:19.455Z,59.22
2022-08-31T16:40:48.963Z,61.49
2022-08-31T16:43:17.608Z,62.88
2022-08-31T16:45:47.254Z,63.45
2022-08-31T16:48:34.108Z,64.30
2022-08-31T16:51:04.129Z,65.25
2022-08-31T16:53:32.774Z,65.43
2022-08-31T16:56:03.895Z,65.85
2022-08-31T16:58:53.376Z,63.40
2022-08-31T17:01:40.431Z,57.18
2022-08-31T17:04:24.632Z,56.75
2022-08-31T17:07:03.350Z,54.59
2022-08-31T17:09:42.592Z,54.43
2022-08-31T17:12:17.700Z,55.38
2022-08-31T17:14:51.504Z,54.11
2022-08-31T17:17:22.630Z,53.83
2022-08-31T17:19:52.237Z,54.62
2022-08-31T17:22:29.911Z,54.59
2022-08-31T17:25:03.823Z,54.63
2022-08-31T17:27:34.172Z,55.37
2022-08-31T17:30:05.986Z,56.28
2022-08-31T17:32:45.166Z,57.05
2022-08-31T17:35:18.656Z,57.36
2022-08-31T17:37:49.177Z,57.82
2022-08-31T17:40:17.939Z,58.46
2022-08-31T17:42:46.558Z,59.73
2022-08-31T17:45:15.762Z,60.71
2022-08-31T17:47:45.782Z,61.72
2022-08-31T17:50:19.997Z,62.12
2022-08-31T17:52:48.999Z,62.99
2022-08-31T17:55:17.792Z,64.02
2022-08-31T17:57:47.099Z,63.58
2022-08-31T18:00:19.509Z,64.55
2022-08-31T18:02:50.371Z,64.20
2022-08-31T18:05:18.988Z,64.65
2022-08-31T18:07:50.241Z,65.00
2022-08-31T18:10:20.445Z,64.64
2022-08-31T18:12:48.923Z,64.71
2022-08-31T18:15:19.196Z,64.92
2022-08-31T18:17:48.146Z,64.83
2022-08-31T18:20:19.178Z,65.09
2022-08-31T18:22:52.062Z,65.82
2022-08-31T18:25:21.817Z,65.73
2022-08-31T18:27:58.376Z,65.54
2022-08-31T18:30:30.846Z,66.06
2022-08-31T18:33:03.344Z,67.30
2022-08-31T18:35:34.592Z,66.77
2022-08-31T18:38:08.562Z,66.19
2022-08-31T18:40:57.162Z,66.15
2022-08-31T18:43:46.534Z,65.97
2022-08-31T18:46:15.827Z,66.43
2022-08-31T18:48:54.948Z,66.09
2022-08-31T18:51:25.276Z,66.76
2022-08-31T18:53:56.309Z,66.81
2022-08-31T18:56:29.575Z,67.31
2022-08-31T18:58:59.485Z,67.19
2022-08-31T19:01:33.644Z,67.63
2022-08-31T19:04:03.403Z,67.64
2022-08-31T19:06:45.404Z,67.00
2022-08-31T19:09:15.323Z,68.32
2022-08-31T19:11:49.217Z,67.47
2022-08-31T19:14:20.609Z,67.07
2022-08-31T19:16:55.129Z,67.99
2022-08-31T19:19:31.070Z,68.53
2022-08-31T19:22:01.571Z,70.28
2022-08-31T19:24:30.271Z,70.48
2022-08-31T19:27:05.240Z,69.50
2022-08-31T19:29:37.969Z,69.98
2022-08-31T19:32:09.090Z,71.87
2022-08-31T19:34:41.628Z,71.09
2022-08-31T19:37:13.828Z,71.66
2022-08-31T19:39:45.822Z,71.78
2022-08-31T19:42:16.677Z,72.33
2022-08-31T19:44:55.768Z,71.96
2022-08-31T19:47:38.893Z,71.64
2022-08-31T19:50:13.558Z,73.15
2022-08-31T19:52:44.889Z,72.57
2022-08-31T19:55:13.850Z,73.75
2022-08-31T19:57:43.652Z,73.57
2022-08-31T20:00:13.749Z,72.13
2022-08-31T20:02:44.867Z,72.35
2022-08-31T20:05:15.941Z,72.33
2022-08-31T20:07:45.875Z,72.26
2022-08-31T20:10:16.779Z,71.79
2022-08-31T20:12:45.951Z,72.31
2022-08-31T20:15:15.674Z,71.78
2022-08-31T20:17:44.161Z,72.78
2022-08-31T20:20:13.546Z,72.37
2022-08-31T20:22:42.073Z,72.46
2022-08-31T20:25:18.054Z,71.32
2022-08-31T20:27:48.411Z,71.79
2022-08-31T20:30:19.623Z,72.50
2022-08-31T20:32:48.115Z,71.59
2022-08-31T20:35:16.883Z,70.13
2022-08-31T20:37:45.430Z,70.10
2022-08-31T20:40:17.433Z,70.29
2022-08-31T20:42:46.014Z,68.92
2022-08-31T20:45:14.428Z,68.67
2022-08-31T20:48:11.800Z,67.44
2022-08-31T20:50:43.061Z,67.92
2022-08-31T20:53:18.141Z,68.05
2022-08-31T20:55:55.077Z,68.18
2022-08-31T20:58:23.466Z,66.96
2022-08-31T21:00:51.752Z,66.74
2022-08-31T21:03:20.430Z,66.33
2022-08-31T21:05:48.868Z,66.43
2022-08-31T21:08:17.422Z,67.63
2022-08-31T21:10:45.661Z,66.24
2022-08-31T21:13:16.692Z,67.05
2022-08-31T21:15:46.744Z,66.99
2022-08-31T21:18:17.687Z,67.64
2022-08-31T21:20:46.445Z,66.91
2022-08-31T21:23:15.994Z,67.33
2022-08-31T21:25:45.969Z,66.93
2022-08-31T21:28:18.380Z,66.35
2022-08-31T21:30:49.145Z,66.22
2022-08-31T21:33:17.953Z,66.01
2022-08-31T21:35:46.142Z,66.43
2022-08-31T21:38:14.748Z,66.70
2022-08-31T21:40:49.239Z,67.32
2022-08-31T21:43:19.556Z,68.21
2022-08-31T21:45:48.316Z,67.83
2022-08-31T21:48:26.135Z,68.66
2022-08-31T21:50:54.747Z,69.08
2022-08-31T21:53:23.113Z,67.17
2022-08-31T21:55:51.241Z,68.02
2022-08-31T21:58:20.837Z,68.06
2022-08-31T22:00:51.130Z,67.40
2022-08-31T22:03:20.424Z,68.19
2022-08-31T22:05:48.697Z,67.26
2022-08-31T22:08:17.977Z,67.80
2022-08-31T22:10:46.198Z,67.78
2022-08-31T22:13:14.528Z,67.00
2022-08-31T22:15:47.150Z,66.95
2022-08-31T22:18:59.050Z,66.96
2022-08-31T22:21:05.400Z,66.28
2022-08-31T22:23:36.959Z,66.36
2022-08-31T22:26:05.768Z,66.66
2022-08-31T22:28:35.507Z,66.55
2022-08-31T22:31:07.462Z,66.44
2022-08-31T22:33:38.116Z,66.15
2022-08-31T22:36:25.775Z,66.40
2022-08-31T22:39:03.289Z,65.84
2022-08-31T22:41:32.847Z,66.29
2022-08-31T22:44:02.943Z,65.40
2022-08-31T22:46:34.018Z,65.09
2022-08-31T22:49:03.714Z,64.81
2022-08-31T22:51:33.261Z,65.03
2022-08-31T22:54:04.057Z,64.53
2022-08-31T22:56:34.490Z,64.23
2022-08-31T22:59:05.760Z,64.77
2022-08-31T23:01:38.437Z,64.82
2022-08-31T23:04:09.624Z,65.20
2022-08-31T23:06:39.846Z,65.16
2022-08-31T23:09:12.467Z,64.67
2022-08-31T23:11:41.092Z,64.26
2022-08-31T23:14:11.301Z,64.49
2022-08-31T23:16:42.910Z,64.70
2022-08-31T23:19:14.414Z,64.65
2022-08-31T23:21:45.148Z,63.75
2022-08-31T23:24:16.791Z,63.87
2022-08-31T23:26:49.759Z,63.91
2022-08-31T23:29:19.963Z,63.39
2022-08-31T23:31:50.341Z,64.06
2022-08-31T23:34:22.088Z,64.01
2022-08-31T23:36:53.356Z,63.38
2022-08-31T23:39:25.215Z,63.41
2022-08-31T23:41:53.884Z,63.89
2022-08-31T23:44:24.708Z,63.70
2022-08-31T23:46:55.428Z,63.98
2022-08-31T23:49:24.972Z,64.23
2022-08-31T23:51:53.855Z,64.14
2022-08-31T23:54:23.373Z,64.81
2022-08-31T23:56:57.864Z,63.72
2022-08-31T23:59:27.703Z,64.04
